sensor_id;sensor_type;location;lat;lon;timestamp;pressure;altitude;pressure_sealevel;temperature;humidity
35577;BME280;21680;52.400;16.920;2022-11-02T00:01:02;101026.73;;;12.73;96.55
35577;BME280;21680;52.400;16.920;2022-11-02T00:03:32;101029.82;;;12.68;96.58
35577;BME280;21680;52.400;16.920;2022-11-02T00:05:57;101030.38;;;12.63;96.59
35577;BME280;21680;52.400;16.920;2022-11-02T00:08:22;101034.16;;;12.59;96.56
35577;BME280;21680;52.400;16.920;2022-11-02T00:10:48;101036.02;;;12.54;96.55
35577;BME280;21680;52.400;16.920;2022-11-02T00:13:13;101038.23;;;12.48;96.45
35577;BME280;21680;52.400;16.920;2022-11-02T00:15:38;101034.34;;;12.43;96.52
35577;BME280;21680;52.400;16.920;2022-11-02T00:18:10;101039.04;;;12.38;96.47
35577;BME280;21680;52.400;16.920;2022-11-02T00:20:38;101035.02;;;12.32;96.49
35577;BME280;21680;52.400;16.920;2022-11-02T00:23:04;101038.81;;;12.27;96.39
35577;BME280;21680;52.400;16.920;2022-11-02T00:25:31;101039.75;;;12.22;96.50
35577;BME280;21680;52.400;16.920;2022-11-02T00:27:58;101042.48;;;12.17;96.55
35577;BME280;21680;52.400;16.920;2022-11-02T00:30:26;101047.50;;;12.14;96.57
35577;BME280;21680;52.400;16.920;2022-11-02T00:32:54;101048.99;;;12.08;96.51
35577;BME280;21680;52.400;16.920;2022-11-02T00:35:19;101053.10;;;12.04;96.63
35577;BME280;21680;52.400;16.920;2022-11-02T00:37:44;101049.81;;;12.01;96.67
35577;BME280;21680;52.400;16.920;2022-11-02T00:40:10;101051.73;;;11.98;96.73
35577;BME280;21680;52.400;16.920;2022-11-02T00:42:36;101050.45;;;11.94;96.63
35577;BME280;21680;52.400;16.920;2022-11-02T00:45:01;101050.11;;;11.90;96.56
35577;BME280;21680;52.400;16.920;2022-11-02T00:47:26;101048.95;;;11.83;96.56
35577;BME280;21680;52.400;16.920;2022-11-02T00:49:51;101053.23;;;11.80;96.71
35577;BME280;21680;52.400;16.920;2022-11-02T00:52:16;101050.10;;;11.77;96.73
35577;BME280;21680;52.400;16.920;2022-11-02T00:54:41;101054.06;;;11.72;96.62
35577;BME280;21680;52.400;16.920;2022-11-02T00:57:08;101049.79;;;11.67;96.62
35577;BME280;21680;52.400;16.920;2022-11-02T00:59:33;101052.85;;;11.62;96.64
35577;BME280;21680;52.400;16.920;2022-11-02T01:01:58;101054.25;;;11.59;96.57
35577;BME280;21680;52.400;16.920;2022-11-02T01:04:23;101053.05;;;11.53;96.47
35577;BME280;21680;52.400;16.920;2022-11-02T01:06:50;101053.79;;;11.48;96.56
35577;BME280;21680;52.400;16.920;2022-11-02T01:09:15;101052.30;;;11.45;96.72
35577;BME280;21680;52.400;16.920;2022-11-02T01:11:41;101049.72;;;11.43;96.81
35577;BME280;21680;52.400;16.920;2022-11-02T01:14:06;101051.29;;;11.39;96.73
35577;BME280;21680;52.400;16.920;2022-11-02T01:16:32;101055.39;;;11.35;96.68
35577;BME280;21680;52.400;16.920;2022-11-02T01:18:58;101058.40;;;11.31;96.73
35577;BME280;21680;52.400;16.920;2022-11-02T01:21:24;101058.80;;;11.26;96.67
35577;BME280;21680;52.400;16.920;2022-11-02T01:23:49;101061.63;;;11.22;96.77
35577;BME280;21680;52.400;16.920;2022-11-02T01:26:14;101066.27;;;11.18;96.87
35577;BME280;21680;52.400;16.920;2022-11-02T01:28:40;101071.23;;;11.14;96.90
35577;BME280;21680;52.400;16.920;2022-11-02T01:31:07;101070.48;;;11.11;96.96
35577;BME280;21680;52.400;16.920;2022-11-02T01:33:33;101071.73;;;11.06;96.98
35577;BME280;21680;52.400;16.920;2022-11-02T01:36:02;101069.96;;;11.01;96.97
35577;BME280;21680;52.400;16.920;2022-11-02T01:38:27;101064.19;;;10.98;97.07
35577;BME280;21680;52.400;16.920;2022-11-02T01:40:52;101063.61;;;10.95;97.05
35577;BME280;21680;52.400;16.920;2022-11-02T01:43:27;101063.38;;;10.91;97.03
35577;BME280;21680;52.400;16.920;2022-11-02T01:48:51;101061.53;;;10.83;97.10
35577;BME280;21680;52.400;16.920;2022-11-02T01:51:22;101061.86;;;10.79;97.17
35577;BME280;21680;52.400;16.920;2022-11-02T01:53:50;101055.96;;;10.74;97.14
35577;BME280;21680;52.400;16.920;2022-11-02T01:56:19;101054.65;;;10.71;97.22
35577;BME280;21680;52.400;16.920;2022-11-02T01:58:51;101055.48;;;10.68;97.26
35577;BME280;21680;52.400;16.920;2022-11-02T02:01:17;101050.73;;;10.66;97.31
35577;BME280;21680;52.400;16.920;2022-11-02T02:03:42;101051.21;;;10.63;97.36
35577;BME280;21680;52.400;16.920;2022-11-02T02:06:12;101053.98;;;10.60;97.30
35577;BME280;21680;52.400;16.920;2022-11-02T02:08:41;101055.19;;;10.57;97.35
35577;BME280;21680;52.400;16.920;2022-11-02T02:11:26;101056.94;;;10.53;97.40
35577;BME280;21680;52.400;16.920;2022-11-02T02:13:55;101056.55;;;10.49;97.44
35577;BME280;21680;52.400;16.920;2022-11-02T02:19:52;101053.70;;;10.44;97.64
35577;BME280;21680;52.400;16.920;2022-11-02T02:22:42;101057.89;;;10.42;97.61
35577;BME280;21680;52.400;16.920;2022-11-02T02:30:45;101058.79;;;10.33;97.62
35577;BME280;21680;52.400;16.920;2022-11-02T02:33:20;101056.58;;;10.29;97.66
35577;BME280;21680;52.400;16.920;2022-11-02T02:35:56;101057.71;;;10.28;97.72
35577;BME280;21680;52.400;16.920;2022-11-02T02:38:29;101059.75;;;10.25;97.78
35577;BME280;21680;52.400;16.920;2022-11-02T02:41:33;101061.69;;;10.21;97.68
35577;BME280;21680;52.400;16.920;2022-11-02T02:44:01;101062.69;;;10.17;97.72
35577;BME280;21680;52.400;16.920;2022-11-02T02:46:41;101066.50;;;10.15;97.77
35577;BME280;21680;52.400;16.920;2022-11-02T02:49:11;101065.38;;;10.12;97.77
35577;BME280;21680;52.400;16.920;2022-11-02T02:51:40;101063.86;;;10.09;97.75
35577;BME280;21680;52.400;16.920;2022-11-02T02:54:18;101066.13;;;10.05;97.81
35577;BME280;21680;52.400;16.920;2022-11-02T02:56:48;101069.00;;;10.05;97.86
35577;BME280;21680;52.400;16.920;2022-11-02T02:59:20;101067.09;;;10.04;97.83
35577;BME280;21680;52.400;16.920;2022-11-02T03:01:47;101068.05;;;10.01;97.77
35577;BME280;21680;52.400;16.920;2022-11-02T03:04:13;101064.99;;;9.97;97.62
35577;BME280;21680;52.400;16.920;2022-11-02T03:06:41;101061.09;;;9.96;97.86
35577;BME280;21680;52.400;16.920;2022-11-02T03:09:18;101059.58;;;9.94;97.85
35577;BME280;21680;52.400;16.920;2022-11-02T03:15:23;101067.27;;;9.93;98.10
35577;BME280;21680;52.400;16.920;2022-11-02T03:17:29;101068.70;;;9.93;98.07
35577;BME280;21680;52.400;16.920;2022-11-02T03:20:16;101069.49;;;9.91;98.04
35577;BME280;21680;52.400;16.920;2022-11-02T03:22:56;101071.00;;;9.88;97.99
35577;BME280;21680;52.400;16.920;2022-11-02T03:25:52;101073.53;;;9.87;98.17
35577;BME280;21680;52.400;16.920;2022-11-02T03:28:30;101071.23;;;9.87;98.22
35577;BME280;21680;52.400;16.920;2022-11-02T03:31:11;101070.39;;;9.85;98.27
35577;BME280;21680;52.400;16.920;2022-11-02T03:33:45;101073.39;;;9.86;98.40
35577;BME280;21680;52.400;16.920;2022-11-02T03:36:17;101073.95;;;9.86;98.32
35577;BME280;21680;52.400;16.920;2022-11-02T03:38:50;101077.84;;;9.87;98.48
35577;BME280;21680;52.400;16.920;2022-11-02T03:41:19;101078.19;;;9.87;98.44
35577;BME280;21680;52.400;16.920;2022-11-02T03:43:48;101070.83;;;9.88;98.58
35577;BME280;21680;52.400;16.920;2022-11-02T03:46:15;101072.77;;;9.89;98.55
35577;BME280;21680;52.400;16.920;2022-11-02T03:48:45;101079.73;;;9.89;98.55
35577;BME280;21680;52.400;16.920;2022-11-02T03:51:14;101085.69;;;9.87;98.51
35577;BME280;21680;52.400;16.920;2022-11-02T03:53:50;101087.92;;;9.84;98.43
35577;BME280;21680;52.400;16.920;2022-11-02T03:59:04;101081.98;;;9.75;98.24
35577;BME280;21680;52.400;16.920;2022-11-02T04:01:30;101086.35;;;9.72;98.48
35577;BME280;21680;52.400;16.920;2022-11-02T04:04:02;101085.64;;;9.72;98.56
35577;BME280;21680;52.400;16.920;2022-11-02T04:06:28;101085.66;;;9.72;98.59
35577;BME280;21680;52.400;16.920;2022-11-02T04:08:53;101091.27;;;9.69;98.55
35577;BME280;21680;52.400;16.920;2022-11-02T04:11:18;101094.86;;;9.69;98.65
35577;BME280;21680;52.400;16.920;2022-11-02T04:14:02;101096.14;;;9.67;98.83
35577;BME280;21680;52.400;16.920;2022-11-02T04:16:46;101101.55;;;9.66;98.74
35577;BME280;21680;52.400;16.920;2022-11-02T04:19:12;101109.67;;;9.63;98.66
35577;BME280;21680;52.400;16.920;2022-11-02T04:21:53;101113.70;;;9.60;98.81
35577;BME280;21680;52.400;16.920;2022-11-02T04:24:37;101113.98;;;9.57;98.77
35577;BME280;21680;52.400;16.920;2022-11-02T04:27:20;101112.80;;;9.54;98.89
35577;BME280;21680;52.400;16.920;2022-11-02T04:29:46;101110.90;;;9.53;98.94
35577;BME280;21680;52.400;16.920;2022-11-02T04:32:11;101107.42;;;9.50;99.29
35577;BME280;21680;52.400;16.920;2022-11-02T04:34:36;101105.37;;;9.47;99.11
35577;BME280;21680;52.400;16.920;2022-11-02T04:37:01;101103.61;;;9.46;99.17
35577;BME280;21680;52.400;16.920;2022-11-02T04:39:47;101104.27;;;9.48;99.33
35577;BME280;21680;52.400;16.920;2022-11-02T04:42:12;101102.52;;;9.47;99.20
35577;BME280;21680;52.400;16.920;2022-11-02T04:44:37;101098.85;;;9.44;99.20
35577;BME280;21680;52.400;16.920;2022-11-02T04:47:02;101099.05;;;9.43;99.17
35577;BME280;21680;52.400;16.920;2022-11-02T04:49:28;101096.58;;;9.42;99.33
35577;BME280;21680;52.400;16.920;2022-11-02T04:51:53;101095.86;;;9.43;99.48
35577;BME280;21680;52.400;16.920;2022-11-02T04:54:18;101093.35;;;9.43;99.44
35577;BME280;21680;52.400;16.920;2022-11-02T04:56:43;101094.67;;;9.41;99.25
35577;BME280;21680;52.400;16.920;2022-11-02T04:59:09;101087.77;;;9.39;99.31
35577;BME280;21680;52.400;16.920;2022-11-02T05:01:34;101089.92;;;9.39;99.52
35577;BME280;21680;52.400;16.920;2022-11-02T05:03:59;101090.80;;;9.39;99.49
35577;BME280;21680;52.400;16.920;2022-11-02T05:06:24;101092.27;;;9.38;99.46
35577;BME280;21680;52.400;16.920;2022-11-02T05:08:50;101090.91;;;9.36;99.44
35577;BME280;21680;52.400;16.920;2022-11-02T05:11:15;101096.27;;;9.36;99.61
35577;BME280;21680;52.400;16.920;2022-11-02T05:13:41;101093.39;;;9.37;99.78
35577;BME280;21680;52.400;16.920;2022-11-02T05:16:10;101089.65;;;9.36;99.61
35577;BME280;21680;52.400;16.920;2022-11-02T05:18:36;101092.94;;;9.34;99.74
35577;BME280;21680;52.400;16.920;2022-11-02T05:21:01;101102.20;;;9.34;99.81
35577;BME280;21680;52.400;16.920;2022-11-02T05:23:27;101104.37;;;9.33;99.73
35577;BME280;21680;52.400;16.920;2022-11-02T05:25:56;101104.43;;;9.31;99.70
35577;BME280;21680;52.400;16.920;2022-11-02T05:28:22;101112.47;;;9.31;99.76
35577;BME280;21680;52.400;16.920;2022-11-02T05:30:48;101115.25;;;9.27;99.74
35577;BME280;21680;52.400;16.920;2022-11-02T05:33:14;101122.00;;;9.23;99.63
35577;BME280;21680;52.400;16.920;2022-11-02T05:35:40;101121.71;;;9.21;99.63
35577;BME280;21680;52.400;16.920;2022-11-02T05:38:05;101126.28;;;9.17;99.70
35577;BME280;21680;52.400;16.920;2022-11-02T05:40:30;101124.82;;;9.12;99.79
35577;BME280;21680;52.400;16.920;2022-11-02T05:42:59;101125.02;;;9.05;99.69
35577;BME280;21680;52.400;16.920;2022-11-02T05:45:24;101120.34;;;9.00;99.83
35577;BME280;21680;52.400;16.920;2022-11-02T05:47:49;101124.19;;;8.97;99.87
35577;BME280;21680;52.400;16.920;2022-11-02T05:50:15;101122.30;;;8.94;99.92
35577;BME280;21680;52.400;16.920;2022-11-02T05:52:40;101116.52;;;8.91;99.83
35577;BME280;21680;52.400;16.920;2022-11-02T05:55:05;101121.52;;;8.91;99.95
35577;BME280;21680;52.400;16.920;2022-11-02T05:57:31;101118.65;;;8.91;99.99
35577;BME280;21680;52.400;16.920;2022-11-02T05:59:56;101116.02;;;8.90;99.96
35577;BME280;21680;52.400;16.920;2022-11-02T06:02:21;101119.92;;;8.90;99.98
35577;BME280;21680;52.400;16.920;2022-11-02T06:04:47;101118.48;;;8.91;100.00
35577;BME280;21680;52.400;16.920;2022-11-02T06:07:12;101114.32;;;8.93;100.00
35577;BME280;21680;52.400;16.920;2022-11-02T06:09:37;101122.26;;;8.96;100.00
35577;BME280;21680;52.400;16.920;2022-11-02T06:12:02;101128.84;;;8.96;100.00
35577;BME280;21680;52.400;16.920;2022-11-02T06:14:28;101135.83;;;8.95;99.96
35577;BME280;21680;52.400;16.920;2022-11-02T06:16:53;101135.64;;;8.96;99.99
35577;BME280;21680;52.400;16.920;2022-11-02T06:19:18;101132.62;;;8.95;99.99
35577;BME280;21680;52.400;16.920;2022-11-02T06:21:43;101132.72;;;8.98;100.00
35577;BME280;21680;52.400;16.920;2022-11-02T06:24:08;101138.41;;;8.98;99.99
35577;BME280;21680;52.400;16.920;2022-11-02T06:26:34;101143.44;;;8.97;99.99
35577;BME280;21680;52.400;16.920;2022-11-02T06:28:59;101143.80;;;8.97;99.97
35577;BME280;21680;52.400;16.920;2022-11-02T06:31:24;101145.48;;;8.94;99.95
35577;BME280;21680;52.400;16.920;2022-11-02T06:33:49;101143.19;;;8.93;99.95
35577;BME280;21680;52.400;16.920;2022-11-02T06:36:14;101143.71;;;8.94;99.96
35577;BME280;21680;52.400;16.920;2022-11-02T06:38:40;101139.84;;;8.92;99.98
35577;BME280;21680;52.400;16.920;2022-11-02T06:41:06;101139.64;;;8.93;99.97
35577;BME280;21680;52.400;16.920;2022-11-02T06:43:32;101143.33;;;8.95;99.97
35577;BME280;21680;52.400;16.920;2022-11-02T06:45:58;101142.20;;;8.96;100.00
35577;BME280;21680;52.400;16.920;2022-11-02T06:48:25;101144.15;;;8.97;100.00
35577;BME280;21680;52.400;16.920;2022-11-02T06:50:50;101147.33;;;8.98;99.99
35577;BME280;21680;52.400;16.920;2022-11-02T06:53:16;101152.48;;;8.99;99.99
35577;BME280;21680;52.400;16.920;2022-11-02T06:55:42;101154.06;;;8.99;100.00
35577;BME280;21680;52.400;16.920;2022-11-02T06:58:08;101154.23;;;9.00;100.00
35577;BME280;21680;52.400;16.920;2022-11-02T07:00:33;101158.33;;;9.00;99.96
35577;BME280;21680;52.400;16.920;2022-11-02T07:02:59;101161.52;;;9.00;99.99
35577;BME280;21680;52.400;16.920;2022-11-02T07:05:25;101156.13;;;9.02;99.99
35577;BME280;21680;52.400;16.920;2022-11-02T07:07:52;101155.55;;;9.03;99.98
35577;BME280;21680;52.400;16.920;2022-11-02T07:10:17;101155.34;;;9.04;100.00
35577;BME280;21680;52.400;16.920;2022-11-02T07:12:42;101159.55;;;9.06;99.99
35577;BME280;21680;52.400;16.920;2022-11-02T07:15:08;101157.34;;;9.09;100.00
35577;BME280;21680;52.400;16.920;2022-11-02T07:17:38;101156.01;;;9.12;99.98
35577;BME280;21680;52.400;16.920;2022-11-02T07:20:03;101158.55;;;9.17;100.00
35577;BME280;21680;52.400;16.920;2022-11-02T07:22:29;101158.13;;;9.19;100.00
35577;BME280;21680;52.400;16.920;2022-11-02T07:24:55;101161.81;;;9.21;100.00
35577;BME280;21680;52.400;16.920;2022-11-02T07:27:20;101163.91;;;9.23;99.99
35577;BME280;21680;52.400;16.920;2022-11-02T07:29:45;101163.09;;;9.26;99.97
35577;BME280;21680;52.400;16.920;2022-11-02T07:32:11;101158.91;;;9.29;99.99
35577;BME280;21680;52.400;16.920;2022-11-02T07:34:36;101161.14;;;9.31;100.00
35577;BME280;21680;52.400;16.920;2022-11-02T07:37:01;101161.57;;;9.35;99.93
35577;BME280;21680;52.400;16.920;2022-11-02T07:39:26;101157.52;;;9.39;99.97
35577;BME280;21680;52.400;16.920;2022-11-02T07:41:53;101154.88;;;9.44;100.00
35577;BME280;21680;52.400;16.920;2022-11-02T07:44:21;101160.27;;;9.48;99.97
35577;BME280;21680;52.400;16.920;2022-11-02T07:46:46;101160.48;;;9.54;99.98
35577;BME280;21680;52.400;16.920;2022-11-02T07:49:11;101158.70;;;9.59;99.95
35577;BME280;21680;52.400;16.920;2022-11-02T07:51:37;101157.84;;;9.63;99.98
35577;BME280;21680;52.400;16.920;2022-11-02T07:54:02;101153.48;;;9.66;99.82
35577;BME280;21680;52.400;16.920;2022-11-02T07:56:27;101150.69;;;9.70;99.94
35577;BME280;21680;52.400;16.920;2022-11-02T07:58:52;101150.27;;;9.72;99.89
35577;BME280;21680;52.400;16.920;2022-11-02T08:01:17;101151.11;;;9.73;99.83
35577;BME280;21680;52.400;16.920;2022-11-02T08:03:43;101151.77;;;9.75;99.62
35577;BME280;21680;52.400;16.920;2022-11-02T08:06:08;101158.66;;;9.77;99.74
35577;BME280;21680;52.400;16.920;2022-11-02T08:08:35;101159.70;;;9.78;99.76
35577;BME280;21680;52.400;16.920;2022-11-02T08:11:07;101157.00;;;9.79;99.65
35577;BME280;21680;52.400;16.920;2022-11-02T08:13:33;101151.71;;;9.82;99.68
35577;BME280;21680;52.400;16.920;2022-11-02T08:15:59;101153.94;;;9.85;99.67
35577;BME280;21680;52.400;16.920;2022-11-02T08:18:26;101154.70;;;9.89;99.56
35577;BME280;21680;52.400;16.920;2022-11-02T08:20:54;101146.95;;;9.91;99.46
35577;BME280;21680;52.400;16.920;2022-11-02T08:23:20;101145.92;;;9.95;99.28
35577;BME280;21680;52.400;16.920;2022-11-02T08:25:46;101150.58;;;10.00;99.33
35577;BME280;21680;52.400;16.920;2022-11-02T08:28:21;101150.73;;;10.06;99.37
35577;BME280;21680;52.400;16.920;2022-11-02T08:30:46;101151.59;;;10.13;99.16
35577;BME280;21680;52.400;16.920;2022-11-02T08:33:14;101152.50;;;10.18;99.09
35577;BME280;21680;52.400;16.920;2022-11-02T08:35:41;101148.63;;;10.23;98.97
35577;BME280;21680;52.400;16.920;2022-11-02T08:38:07;101146.30;;;10.27;98.87
35577;BME280;21680;52.400;16.920;2022-11-02T08:40:33;101152.73;;;10.33;98.74
35577;BME280;21680;52.400;16.920;2022-11-02T08:43:00;101150.79;;;10.37;98.55
35577;BME280;21680;52.400;16.920;2022-11-02T08:45:27;101151.10;;;10.43;98.48
35577;BME280;21680;52.400;16.920;2022-11-02T08:47:52;101147.44;;;10.50;98.46
35577;BME280;21680;52.400;16.920;2022-11-02T08:50:18;101140.39;;;10.58;98.33
35577;BME280;21680;52.400;16.920;2022-11-02T08:52:43;101143.27;;;10.62;97.83
35577;BME280;21680;52.400;16.920;2022-11-02T08:55:08;101142.13;;;10.64;97.79
35577;BME280;21680;52.400;16.920;2022-11-02T08:57:56;101131.80;;;10.68;97.69
35577;BME280;21680;52.400;16.920;2022-11-02T09:00:24;101130.65;;;10.75;97.60
35577;BME280;21680;52.400;16.920;2022-11-02T09:03:01;101129.91;;;10.81;97.16
35577;BME280;21680;52.400;16.920;2022-11-02T09:05:29;101132.23;;;10.86;97.33
35577;BME280;21680;52.400;16.920;2022-11-02T09:07:59;101136.33;;;10.91;97.25
35577;BME280;21680;52.400;16.920;2022-11-02T09:10:26;101128.15;;;10.95;96.92
35577;BME280;21680;52.400;16.920;2022-11-02T09:12:52;101126.41;;;10.98;96.76
35577;BME280;21680;52.400;16.920;2022-11-02T09:15:18;101127.63;;;11.04;96.72
35577;BME280;21680;52.400;16.920;2022-11-02T09:17:46;101131.91;;;11.13;96.65
35577;BME280;21680;52.400;16.920;2022-11-02T09:20:11;101135.51;;;11.22;96.47
35577;BME280;21680;52.400;16.920;2022-11-02T09:22:37;101134.55;;;11.28;96.28
35577;BME280;21680;52.400;16.920;2022-11-02T09:25:02;101131.40;;;11.36;95.90
35577;BME280;21680;52.400;16.920;2022-11-02T09:27:28;101132.21;;;11.43;95.67
35577;BME280;21680;52.400;16.920;2022-11-02T09:29:53;101131.58;;;11.50;95.53
35577;BME280;21680;52.400;16.920;2022-11-02T09:32:18;101126.95;;;11.58;94.98
35577;BME280;21680;52.400;16.920;2022-11-02T09:34:44;101121.23;;;11.66;94.95
35577;BME280;21680;52.400;16.920;2022-11-02T09:37:11;101121.98;;;11.75;94.89
35577;BME280;21680;52.400;16.920;2022-11-02T09:39:36;101120.80;;;11.82;93.94
35577;BME280;21680;52.400;16.920;2022-11-02T09:42:19;101119.48;;;11.88;93.69
35577;BME280;21680;52.400;16.920;2022-11-02T09:44:50;101120.31;;;11.94;93.65
35577;BME280;21680;52.400;16.920;2022-11-02T09:47:18;101118.17;;;12.02;93.53
35577;BME280;21680;52.400;16.920;2022-11-02T09:49:45;101115.58;;;12.09;93.12
35577;BME280;21680;52.400;16.920;2022-11-02T09:52:18;101110.89;;;12.14;92.98
35577;BME280;21680;52.400;16.920;2022-11-02T09:54:51;101112.99;;;12.19;92.54
35577;BME280;21680;52.400;16.920;2022-11-02T09:57:27;101112.11;;;12.19;91.92
35577;BME280;21680;52.400;16.920;2022-11-02T09:59:53;101109.80;;;12.22;91.29
35577;BME280;21680;52.400;16.920;2022-11-02T10:02:49;101108.16;;;12.27;90.54
35577;BME280;21680;52.400;16.920;2022-11-02T10:05:42;101108.79;;;12.33;89.61
35577;BME280;21680;52.400;16.920;2022-11-02T10:13:55;101102.02;;;12.53;89.35
35577;BME280;21680;52.400;16.920;2022-11-02T10:16:32;101104.97;;;12.59;88.87
35577;BME280;21680;52.400;16.920;2022-11-02T10:19:02;101098.42;;;12.61;88.38
35577;BME280;21680;52.400;16.920;2022-11-02T10:21:32;101100.38;;;12.65;88.46
35577;BME280;21680;52.400;16.920;2022-11-02T10:24:01;101100.03;;;12.73;88.38
35577;BME280;21680;52.400;16.920;2022-11-02T10:26:35;101108.77;;;12.82;88.16
35577;BME280;21680;52.400;16.920;2022-11-02T10:29:14;101116.73;;;12.89;87.31
35577;BME280;21680;52.400;16.920;2022-11-02T10:31:41;101109.19;;;12.89;86.10
35577;BME280;21680;52.400;16.920;2022-11-02T10:34:23;101119.35;;;12.90;86.17
35577;BME280;21680;52.400;16.920;2022-11-02T10:39:41;101101.72;;;12.95;84.65
35577;BME280;21680;52.400;16.920;2022-11-02T10:45:16;101099.88;;;13.04;84.56
35577;BME280;21680;52.400;16.920;2022-11-02T10:48:02;101104.75;;;13.11;83.88
35577;BME280;21680;52.400;16.920;2022-11-02T10:50:47;101103.02;;;13.13;83.92
35577;BME280;21680;52.400;16.920;2022-11-02T10:53:18;101098.02;;;13.21;84.13
35577;BME280;21680;52.400;16.920;2022-11-02T10:56:04;101095.82;;;13.29;83.47
35577;BME280;21680;52.400;16.920;2022-11-02T10:58:35;101092.95;;;13.37;83.74
35577;BME280;21680;52.400;16.920;2022-11-02T11:01:06;101089.36;;;13.44;83.59
35577;BME280;21680;52.400;16.920;2022-11-02T11:03:31;101089.54;;;13.52;83.31
35577;BME280;21680;52.400;16.920;2022-11-02T11:05:59;101087.65;;;13.57;83.25
35577;BME280;21680;52.400;16.920;2022-11-02T11:08:28;101087.02;;;13.59;82.70
35577;BME280;21680;52.400;16.920;2022-11-02T11:11:08;101078.88;;;13.60;82.61
35577;BME280;21680;52.400;16.920;2022-11-02T11:13:34;101081.09;;;13.66;82.60
35577;BME280;21680;52.400;16.920;2022-11-02T11:16:00;101084.73;;;13.73;82.31
35577;BME280;21680;52.400;16.920;2022-11-02T11:18:28;101073.27;;;13.76;81.16
35577;BME280;21680;52.400;16.920;2022-11-02T11:20:54;101078.50;;;13.79;81.24
35577;BME280;21680;52.400;16.920;2022-11-02T11:23:24;101073.00;;;13.81;80.58
35577;BME280;21680;52.400;16.920;2022-11-02T11:26:01;101078.73;;;13.85;80.68
35577;BME280;21680;52.400;16.920;2022-11-02T11:28:53;101085.33;;;13.93;80.61
35577;BME280;21680;52.400;16.920;2022-11-02T11:31:19;101073.10;;;13.97;79.59
35577;BME280;21680;52.400;16.920;2022-11-02T11:33:51;101081.10;;;14.02;79.04
35577;BME280;21680;52.400;16.920;2022-11-02T11:36:29;101074.64;;;14.02;77.94
35577;BME280;21680;52.400;16.920;2022-11-02T11:39:02;101080.38;;;14.02;77.39
35577;BME280;21680;52.400;16.920;2022-11-02T11:41:30;101071.61;;;14.09;78.30
35577;BME280;21680;52.400;16.920;2022-11-02T11:43:57;101069.05;;;14.16;77.00
35577;BME280;21680;52.400;16.920;2022-11-02T11:46:37;101066.39;;;14.23;77.77
35577;BME280;21680;52.400;16.920;2022-11-02T11:49:04;101061.23;;;14.24;77.50
35577;BME280;21680;52.400;16.920;2022-11-02T11:51:39;101058.02;;;14.28;77.76
35577;BME280;21680;52.400;16.920;2022-11-02T11:56:47;101052.48;;;14.31;75.77
35577;BME280;21680;52.400;16.920;2022-11-02T11:59:22;101054.77;;;14.35;76.68
35577;BME280;21680;52.400;16.920;2022-11-02T12:01:48;101070.04;;;14.39;76.22
35577;BME280;21680;52.400;16.920;2022-11-02T12:04:25;101058.22;;;14.35;75.57
35577;BME280;21680;52.400;16.920;2022-11-02T12:10:16;101065.04;;;14.31;75.00
35577;BME280;21680;52.400;16.920;2022-11-02T12:12:50;101062.74;;;14.34;75.34
35577;BME280;21680;52.400;16.920;2022-11-02T12:15:35;101064.04;;;14.37;75.04
35577;BME280;21680;52.400;16.920;2022-11-02T12:21:14;101052.70;;;14.51;75.71
35577;BME280;21680;52.400;16.920;2022-11-02T12:24:06;101053.06;;;14.65;75.57
35577;BME280;21680;52.400;16.920;2022-11-02T12:26:42;101052.36;;;14.77;75.66
35577;BME280;21680;52.400;16.920;2022-11-02T12:29:21;101059.34;;;14.91;75.94
35577;BME280;21680;52.400;16.920;2022-11-02T12:34:51;101064.39;;;15.07;75.27
35577;BME280;21680;52.400;16.920;2022-11-02T12:42:40;101071.40;;;15.17;73.37
35577;BME280;21680;52.400;16.920;2022-11-02T12:45:37;101064.02;;;15.07;73.11
35577;BME280;21680;52.400;16.920;2022-11-02T12:48:05;101069.21;;;14.91;72.14
35577;BME280;21680;52.400;16.920;2022-11-02T12:53:41;101068.15;;;14.61;71.19
35577;BME280;21680;52.400;16.920;2022-11-02T12:56:13;101064.23;;;14.54;72.03
35577;BME280;21680;52.400;16.920;2022-11-02T12:58:42;101072.15;;;14.50;71.72
35577;BME280;21680;52.400;16.920;2022-11-02T13:01:31;101062.99;;;14.47;71.43
35577;BME280;21680;52.400;16.920;2022-11-02T13:06:47;101074.89;;;14.43;71.59
35577;BME280;21680;52.400;16.920;2022-11-02T13:09:33;101074.70;;;14.43;71.86
35577;BME280;21680;52.400;16.920;2022-11-02T13:12:09;101077.93;;;14.43;71.23
35577;BME280;21680;52.400;16.920;2022-11-02T13:14:46;101077.33;;;14.40;71.48
35577;BME280;21680;52.400;16.920;2022-11-02T13:17:35;101075.66;;;14.38;71.02
35577;BME280;21680;52.400;16.920;2022-11-02T13:20:16;101078.27;;;14.33;71.02
35577;BME280;21680;52.400;16.920;2022-11-02T13:22:44;101082.72;;;14.30;71.11
35577;BME280;21680;52.400;16.920;2022-11-02T13:25:19;101089.77;;;14.29;70.68
35577;BME280;21680;52.400;16.920;2022-11-02T13:27:51;101088.86;;;14.33;70.47
35577;BME280;21680;52.400;16.920;2022-11-02T13:30:18;101082.99;;;14.39;70.90
35577;BME280;21680;52.400;16.920;2022-11-02T13:33:00;101081.46;;;14.44;70.91
35577;BME280;21680;52.400;16.920;2022-11-02T13:35:37;101082.63;;;14.39;70.58
35577;BME280;21680;52.400;16.920;2022-11-02T13:38:37;101088.66;;;14.26;70.30
35577;BME280;21680;52.400;16.920;2022-11-02T13:49:28;101094.48;;;14.04;70.54
35577;BME280;21680;52.400;16.920;2022-11-02T13:52:02;101090.64;;;14.05;70.71
35577;BME280;21680;52.400;16.920;2022-11-02T13:54:33;101090.04;;;14.03;70.57
35577;BME280;21680;52.400;16.920;2022-11-02T13:56:59;101091.20;;;13.98;70.69